EW7704 Weather Reports


Display with metric or nautical units.
time (UTC)temp
F
wind
direction
speed
MPH
gust
MPH
rain 1hr
in
rain 24hr
in
rain mn
in
humidity
%
barometer
mb
20260904015542 79 22 0.0 3.0 0.00 0.00 0.00 32 1002.0
20260904015042 80 38 1.0 3.0 0.00 0.00 0.00 32 1001.9
20260904014608 80 53 1.0 4.0 0.00 0.00 0.00 31 1001.9
20260904014042 80 360 1.0 4.0 0.00 0.00 0.00 31 1001.9
20260904013541 81 48 1.0 4.0 0.00 0.00 0.00 30 1001.9
20260904013041 81 45 3.0 6.0 0.00 0.00 0.00 30 1001.9
20260904012542 82 30 2.0 6.0 0.00 0.00 0.00 30 1001.9
20260904012041 82 32 3.0 8.0 0.00 0.00 0.00 29 1001.9
20260904011541 82 21 3.0 9.0 0.00 0.00 0.00 29 1001.8
20260904011040 83 25 3.0 10.0 0.00 0.00 0.00 29 1001.8
20260904010541 83 360 4.0 10.0 0.00 0.00 0.00 28 1001.9
20260904010042 84 24 4.0 11.0 0.00 0.00 0.00 28 1001.8
20260904005540 84 10 4.0 12.0 0.00 0.00 0.00 27 1001.8
20260904005040 85 10 7.0 12.0 0.00 0.00 0.00 26 1001.9
20260904004540 85 10 5.0 12.0 0.00 0.00 0.00 25 1001.9
20260904004040 85 9 6.0 10.0 0.00 0.00 0.00 24 1001.9
20260904003539 86 9 3.0 6.0 0.00 0.00 0.00 23 1001.9
20260904003048 86 360 2.0 5.0 0.00 0.00 0.00 23 1001.8
20260904002539 86 9 3.0 8.0 0.00 0.00 0.00 22 1001.8
20260904002038 86 5 3.0 8.0 0.00 0.00 0.00 23 1001.8
20260904001539 87 360 2.0 10.0 0.00 0.00 0.00 22 1001.9
20260904001039 87 38 4.0 10.0 0.00 0.00 0.00 21 1001.8
20260904000539 87 349 3.0 11.0 0.00 0.00 0.00 21 1001.8
20260904000042 88 30 5.0 11.0 0.00 0.00 0.00 20 1001.8
20260903235538 89 9 5.0 11.0 0.00 0.00 0.00 20 1001.8
20260903235039 89 29 5.0 12.0 0.00 0.00 0.00 19 1001.8
20260903234537 90 49 7.0 12.0 0.00 0.00 0.00 19 1001.8
20260903234040 90 29 2.0 9.0 0.00 0.00 0.00 19 1001.8
20260903233537 90 44 3.0 9.0 0.00 0.00 0.00 18 1001.8
20260903233038 90 74 5.0 9.0 0.00 0.00 0.00 19 1001.8
20260903232537 90 39 3.0 8.0 0.00 0.00 0.00 18 1001.8
20260903232037 90 34 4.0 10.0 0.00 0.00 0.00 18 1001.8
20260903231537 90 44 4.0 10.0 0.00 0.00 0.00 20 1001.8
20260903231037 90 22 3.0 10.0 0.00 0.00 0.00 21 1001.8
20260903230536 91 31 5.0 11.0 0.00 0.00 0.00 19 1001.9
20260903230048 91 34 4.0 11.0 0.00 0.00 0.00 18 1001.9
20260903225535 91 45 2.0 11.0 0.00 0.00 0.00 18 1001.9
20260903225034 91 49 5.0 11.0 0.00 0.00 0.00 17 1001.9
20260903224533 91 355 1.0 4.0 0.00 0.00 0.00 18 1001.9
20260903224033 91 47 2.0 4.0 0.00 0.00 0.00 18 1001.9
20260903223632 91 18 1.0 5.0 0.00 0.00 0.00 18 1002.0
20260903223030 91 55 1.0 8.0 0.00 0.00 0.00 18 1002.0
20260903222529 91 29 4.0 9.0 0.00 0.00 0.00 17 1002.1
20260903222029 91 32 3.0 7.0 0.00 0.00 0.00 18 1002.3
20260903221527 91 128 3.0 11.0 0.00 0.00 0.00 17 1002.4
20260903221029 91 86 5.0 11.0 0.00 0.00 0.00 18 1002.4
20260903220527 91 57 3.0 9.0 0.00 0.00 0.00 19 1002.4
20260903220025 91 42 5.0 9.0 0.00 0.00 0.00 18 1002.5
20260903215528 91 64 1.0 4.0 0.00 0.00 0.00 17 1002.5
20260903215025 91 98 2.0 10.0 0.00 0.00 0.00 18 1002.5
20260903214536 91 76 4.0 10.0 0.00 0.00 0.00 18 1002.6
20260903214024 91 104 4.0 10.0 0.00 0.00 0.00 18 1002.7
20260903213522 91 75 6.0 11.0 0.00 0.00 0.00 18 1002.7
20260903213022 90 75 4.0 11.0 0.00 0.00 0.00 19 1002.7
20260903212521 90 30 6.0 15.0 0.00 0.00 0.00 18 1002.7
20260903212023 90 67 6.0 15.0 0.00 0.00 0.00 18 1002.8
20260903211519 90 67 4.0 9.0 0.00 0.00 0.00 19 1002.9
20260903211018 90 5 1.0 11.0 0.00 0.00 0.00 19 1002.9
20260903210517 90 46 4.0 13.0 0.00 0.00 0.00 19 1003.0
20260903210018 90 67 7.0 13.0 0.00 0.00 0.00 19 1003.2
20260903205516 89 38 5.0 11.0 0.00 0.00 0.00 20 1003.1
20260903205016 89 55 2.0 11.0 0.00 0.00 0.00 19 1003.2
20260903204514 89 65 5.0 11.0 0.00 0.00 0.00 19 1003.3
20260903204015 89 47 3.0 9.0 0.00 0.00 0.00 19 1003.4
20260903203516 88 34 3.0 14.0 0.00 0.00 0.00 19 1003.4
20260903203012 89 66 6.0 16.0 0.00 0.00 0.00 19 1003.5
20260903202512 89 70 9.0 16.0 0.00 0.00 0.00 19 1003.5
20260903202012 89 5 5.0 12.0 0.00 0.00 0.00 20 1003.5
20260903201512 89 56 7.0 12.0 0.00 0.00 0.00 19 1003.6
20260903201011 88 306 3.0 11.0 0.00 0.00 0.00 22 1003.6
20260903200510 88 128 5.0 11.0 0.00 0.00 0.00 20 1003.6
20260903200009 88 62 4.0 10.0 0.00 0.00 0.00 20 1003.7
20260903195508 88 74 6.0 15.0 0.00 0.00 0.00 20 1003.9
20260903195009 88 118 6.0 15.0 0.00 0.00 0.00 21 1003.9
20260903194507 89 37 4.0 12.0 0.00 0.00 0.00 19 1003.9
20260903194006 88 58 4.0 12.0 0.00 0.00 0.00 20 1004.0
20260903193506 88 69 3.0 11.0 0.00 0.00 0.00 21 1004.1
20260903193005 88 65 8.0 13.0 0.00 0.00 0.00 20 1004.1
20260903192505 88 130 9.0 13.0 0.00 0.00 0.00 20 1004.2
20260903192005 87 50 7.0 15.0 0.00 0.00 0.00 22 1004.3
20260903191504 87 30 5.0 15.0 0.00 0.00 0.00 21 1004.3
20260903191003 88 19 7.0 12.0 0.00 0.00 0.00 23 1004.4
20260903190503 87 40 3.0 10.0 0.00 0.00 0.00 21 1004.4
20260903190002 88 67 4.0 9.0 0.00 0.00 0.00 20 1004.5
20260903185600 88 100 3.0 9.0 0.00 0.00 0.00 21 1004.6
20260903185059 88 73 3.0 10.0 0.00 0.00 0.00 22 1004.6
20260903184600 87 88 4.0 9.0 0.00 0.00 0.00 23 1004.7
20260903184058 86 34 2.0 10.0 0.00 0.00 0.00 24 1004.7
20260903183601 88 79 3.0 10.0 0.00 0.00 0.00 23 1004.6
20260903183057 88 142 0.0 8.0 0.00 0.00 0.00 24 1004.8
20260903182600 87 340 1.0 7.0 0.00 0.00 0.00 23 1004.9
20260903182055 88 88 2.0 7.0 0.00 0.00 0.00 25 1005.0
20260903181604 87 117 2.0 8.0 0.00 0.00 0.00 25 1005.1
20260903181055 86 95 3.0 8.0 0.00 0.00 0.00 25 1005.1
20260903180555 86 88 2.0 4.0 0.00 0.00 0.00 24 1005.2
20260903175554 85 170 1.0 4.0 0.00 0.00 0.00 26 1005.2
20260903175054 85 106 2.0 8.0 0.00 0.00 0.00 25 1005.2
20260903174556 85 355 3.0 8.0 0.00 0.00 0.00 25 1005.3
20260903174053 85 16 2.0 6.0 0.00 0.00 0.00 26 1005.3
20260903173553 85 30 2.0 6.0 0.00 0.00 0.00 24 1005.4
20260903173101 84 69 2.0 7.0 0.00 0.00 0.00 25 1005.4
20260903172557 84 81 3.0 5.0 0.00 0.00 0.00 24 1005.3
20260903172052 86 13 1.0 4.0 0.00 0.00 0.00 26 1005.3
20260903171552 86 122 1.0 6.0 0.00 0.00 0.00 28 1005.3
20260903171051 86 350 1.0 6.0 0.00 0.00 0.00 28 1005.3
20260903170551 87 28 1.0 4.0 0.00 0.00 0.00 30 1005.4
20260903170141 86 5 1.0 4.0 0.00 0.00 0.00 31 1005.4
20260903165550 85 239 1.0 4.0 0.00 0.00 0.00 33 1005.4
20260903165050 86 23 1.0 6.0 0.00 0.00 0.00 33 1005.4
20260903164552 84 255 1.0 6.0 0.00 0.00 0.00 36 1005.4
20260903164050 84 267 1.0 5.0 0.00 0.00 0.00 37 1005.5
20260903163550 85 223 1.0 7.0 0.00 0.00 0.00 35 1005.4
20260903163045 83 234 3.0 7.0 0.00 0.00 0.00 34 1005.2
20260903162548 83 255 3.0 8.0 0.00 0.00 0.00 34 1005.3
20260903162045 84 182 2.0 8.0 0.00 0.00 0.00 30 1005.3
20260903161553 83 248 3.0 10.0 0.00 0.00 0.00 30 1005.3
20260903161042 81 67 2.0 6.0 0.00 0.00 0.00 33 1005.3
20260903160542 81 212 1.0 6.0 0.00 0.00 0.00 35 1005.4
20260903160045 81 360 0.0 6.0 0.00 0.00 0.00 33 1005.3
20260903155542 80 68 3.0 7.0 0.00 0.00 0.00 33 1005.3
20260903155040 80 59 2.0 6.0 0.00 0.00 0.00 32 1005.4
20260903154550 81 213 1.0 4.0 0.00 0.00 0.00 36 1005.2
20260903154039 80 323 1.0 9.0 0.00 0.00 0.00 37 1005.4
20260903153537 79 213 1.0 8.0 0.00 0.00 0.00 40 1005.2
20260903153036 76 57 2.0 8.0 0.00 0.00 0.00 47 1005.4
20260903152534 75 47 3.0 8.0 0.00 0.00 0.00 51 1005.4
20260903152033 73 25 3.0 5.0 0.00 0.00 0.00 54 1005.4
20260903151544 71 46 2.0 6.0 0.00 0.00 0.00 58 1005.6
20260903151133 71 19 4.0 9.0 0.00 0.00 0.00 56 1005.7
20260903150533 73 62 2.0 8.0 0.00 0.00 0.00 52 1005.7
20260903150039 72 61 4.0 8.0 0.00 0.00 0.00 53 1005.7
20260903145529 71 91 3.0 7.0 0.00 0.00 0.00 53 1005.8
20260903145028 69 135 3.0 5.0 0.00 0.00 0.00 61 1005.9
20260903144528 67 67 3.0 5.0 0.00 0.00 0.00 63 1005.8
20260903144028 67 14 2.0 9.0 0.00 0.00 0.00 66 1006.0
20260903143527 69 25 4.0 9.0 0.00 0.00 0.00 61 1006.0
20260903143026 69 97 3.0 8.0 0.00 0.00 0.00 60 1005.8
20260903142524 68 98 3.0 7.0 0.00 0.00 0.00 62 1005.8
20260903142025 67 90 3.0 8.0 0.00 0.00 0.00 65 1005.7
20260903141525 66 77 3.0 7.0 0.00 0.00 0.00 67 1005.7
20260903141020 65 109 3.0 6.0 0.00 0.00 0.00 66 1005.8
20260903140518 64 121 1.0 4.0 0.00 0.00 0.00 72 1005.8
20260903140026 62 161 0.0 3.0 0.00 0.00 0.00 75 1006.0
20260903135518 61 92 1.0 6.0 0.00 0.00 0.00 76 1006.1
20260903135020 61 157 1.0 6.0 0.00 0.00 0.00 77 1006.0
20260903134517 61 57 1.0 4.0 0.00 0.00 0.00 77 1006.0
20260903134017 62 124 0.0 3.0 0.00 0.00 0.00 76 1006.0
20260903133520 61 125 1.0 3.0 0.00 0.00 0.00 76 1006.0
20260903133017 61 79 0.0 2.0 0.00 0.00 0.00 75 1005.9
20260903132516 60 175 0.0 3.0 0.00 0.00 0.00 77 1006.0
20260903132015 59 121 2.0 3.0 0.00 0.00 0.00 79 1005.8
20260903131516 58 234 0.0 2.0 0.00 0.00 0.00 82 1005.9
20260903131015 58 236 0.0 2.0 0.00 0.00 0.00 83 1005.7
20260903130515 57 236 1.0 2.0 0.00 0.00 0.00 84 1005.8
20260903130014 57 202 0.0 4.0 0.00 0.00 0.00 86 1005.8
20260903125514 55 178 0.0 6.0 0.00 0.00 0.00 88 1005.7
20260903125013 55 99 2.0 6.0 0.00 0.00 0.00 87 1005.7
20260903124512 55 360 0.0 2.0 0.00 0.00 0.00 88 1005.5
20260903124011 54 360 0.0 4.0 0.00 0.00 0.00 88 1005.3
20260903123511 54 360 2.0 4.0 0.00 0.00 0.00 87 1005.2
20260903123014 55 360 0.0 2.0 0.00 0.00 0.00 86 1005.3
20260903122510 55 360 0.0 1.0 0.00 0.00 0.00 88 1005.3
20260903122013 55 360 0.0 2.0 0.00 0.00 0.00 87 1005.2
20260903121509 55 360 0.0 2.0 0.00 0.00 0.00 87 1005.1
20260903121012 55 360 0.0 4.0 0.00 0.00 0.00 86 1005.3
20260903120508 56 360 0.0 4.0 0.00 0.00 0.00 86 1005.2
20260903120007 55 360 1.0 3.0 0.00 0.00 0.00 87 1005.2
20260903115508 56 360 0.0 3.0 0.00 0.00 0.00 87 1005.0
20260903115006 56 360 0.0 3.0 0.00 0.00 0.00 86 1005.1
20260903114506 56 360 0.0 2.0 0.00 0.00 0.00 87 1005.0
20260903114005 56 360 0.0 2.0 0.00 0.00 0.00 86 1005.0
20260903113505 56 360 0.0 2.0 0.00 0.00 0.00 87 1004.9
20260903113017 56 360 0.0 2.0 0.00 0.00 0.00 86 1004.9
20260903112505 57 360 0.0 2.0 0.00 0.00 0.00 86 1004.9
20260903112005 57 360 0.0 2.0 0.00 0.00 0.00 86 1004.8
20260903111506 57 360 0.0 2.0 0.00 0.00 0.00 87 1004.6
20260903111005 56 360 0.0 3.0 0.00 0.00 0.00 87 1004.8
20260903110505 56 360 0.0 2.0 0.00 0.00 0.00 88 1004.9
20260903110005 56 360 0.0 2.0 0.00 0.00 0.00 87 1004.8
20260903105504 56 360 0.0 1.0 0.00 0.00 0.00 87 1004.8
20260903105005 56 360 0.0 1.0 0.00 0.00 0.00 86 1004.6
20260903104503 56 360 0.0 1.0 0.00 0.00 0.00 88 1004.7
20260903104004 56 360 0.0 1.0 0.00 0.00 0.00 87 1004.7
20260903103501 57 360 0.0 1.0 0.00 0.00 0.00 87 1004.8
20260903103001 56 360 0.0 1.0 0.00 0.00 0.00 88 1004.8
20260903102500 56 360 0.0 2.0 0.00 0.00 0.00 88 1004.8
20260903102100 56 360 0.0 2.0 0.00 0.00 0.00 88 1004.9
20260903101602 57 360 0.0 1.0 0.00 0.00 0.00 88 1005.0
20260903101059 57 360 0.0 1.0 0.00 0.00 0.00 86 1004.9
20260903100559 57 360 0.0 1.0 0.00 0.00 0.00 86 1004.7
20260903100059 57 360 0.0 1.0 0.00 0.00 0.00 85 1004.9
20260903095558 58 360 0.0 1.0 0.00 0.00 0.00 85 1005.0
20260903095058 58 360 0.0 2.0 0.00 0.00 0.00 85 1005.1
20260903094557 57 360 0.0 2.0 0.00 0.00 0.00 85 1005.1
20260903094057 57 360 0.0 1.0 0.00 0.00 0.00 84 1005.0
20260903093558 58 142 0.0 1.0 0.00 0.00 0.00 81 1005.0
20260903093100 59 147 0.0 1.0 0.00 0.00 0.00 82 1005.0
20260903092557 59 147 0.0 1.0 0.00 0.00 0.00 83 1004.9
20260903092055 59 147 0.0 1.0 0.00 0.00 0.00 84 1005.0
20260903091556 59 147 0.0 1.0 0.00 0.00 0.00 85 1004.9
20260903091054 59 147 0.0 0.0 0.00 0.00 0.00 84 1005.0
20260903090554 59 147 0.0 1.0 0.00 0.00 0.00 85 1005.0
20260903090054 59 147 0.0 1.0 0.00 0.00 0.00 85 1004.9
20260903085552 59 136 0.0 1.0 0.00 0.00 0.00 84 1005.0
20260903085052 59 142 0.0 1.0 0.00 0.00 0.00 84 1004.9
20260903084553 60 98 0.0 0.0 0.00 0.00 0.00 83 1004.9
20260903084050 60 360 0.0 1.0 0.00 0.00 0.00 82 1004.9
20260903083549 61 360 0.0 0.0 0.00 0.00 0.00 81 1004.9
20260903083048 61 148 0.0 0.0 0.00 0.00 0.00 80 1004.9
20260903082547 62 149 0.0 1.0 0.00 0.00 0.00 80 1004.9
20260903082048 61 149 0.0 1.0 0.00 0.00 0.00 81 1005.0
20260903081547 61 137 0.0 1.0 0.00 0.00 0.00 82 1005.0
20260903081148 61 136 0.0 1.0 0.00 0.00 0.00 82 1005.0
20260903080547 61 128 0.0 1.0 0.00 0.00 0.00 82 1004.9
20260903080044 61 112 0.0 0.0 0.00 0.00 0.00 81 1004.8
20260903075543 62 113 0.0 0.0 0.00 0.00 0.00 81 1004.7
20260903075042 62 113 0.0 0.0 0.00 0.00 0.00 81 1004.8
20260903074550 62 114 0.0 0.0 0.00 0.00 0.00 81 1004.8
20260903074040 62 114 0.0 0.0 0.00 0.00 0.00 79 1004.9
20260903073539 63 112 0.0 1.0 0.00 0.00 0.00 79 1005.0
20260903073138 63 113 0.0 1.0 0.00 0.00 0.00 78 1005.1
20260903072538 64 114 0.0 2.0 0.00 0.00 0.00 77 1005.1
20260903072038 63 114 0.0 2.0 0.00 0.00 0.00 77 1005.1
20260903071538 63 10 0.0 1.0 0.00 0.00 0.00 77 1005.1
20260903071036 63 10 0.0 2.0 0.00 0.00 0.00 76 1005.2
20260903070536 63 10 1.0 2.0 0.00 0.00 0.00 76 1005.4
20260903070036 64 236 0.0 1.0 0.00 0.00 0.00 74 1005.4
20260903065536 64 236 0.0 1.0 0.00 0.00 0.00 74 1005.3
20260903065035 64 236 0.0 0.0 0.00 0.00 0.00 73 1005.4
20260903064535 64 236 0.0 1.0 0.00 0.00 0.00 74 1005.5
20260903064035 64 236 0.0 2.0 0.00 0.00 0.00 75 1005.4
20260903063534 63 236 0.0 2.0 0.00 0.00 0.00 76 1005.4
20260903063035 63 85 0.0 2.0 0.00 0.00 0.00 76 1005.2
20260903062531 64 86 1.0 2.0 0.00 0.00 0.00 72 1005.3
20260903062031 65 134 0.0 3.0 0.00 0.00 0.00 69 1005.2
20260903061531 65 134 0.0 3.0 0.00 0.00 0.00 69 1005.4
20260903061029 65 115 1.0 3.0 0.00 0.00 0.00 69 1005.3
20260903060528 65 139 0.0 1.0 0.00 0.00 0.00 70 1005.2
20260903060027 65 139 0.0 2.0 0.00 0.00 0.00 70 1005.2
20260903055527 65 139 0.0 2.0 0.00 0.00 0.00 70 1005.1
20260903055027 65 139 0.0 2.0 0.00 0.00 0.00 70 1005.3
20260903054532 65 139 0.0 2.0 0.00 0.00 0.00 70 1005.2
20260903054026 65 139 0.0 2.0 0.00 0.00 0.00 70 1004.9
20260903053526 65 137 1.0 2.0 0.00 0.00 0.00 70 1005.0
20260903053026 65 248 0.0 1.0 0.00 0.00 0.00 70 1005.0
20260903052526 65 248 0.0 1.0 0.00 0.00 0.00 69 1004.9
20260903052026 65 250 0.0 1.0 0.00 0.00 0.00 70 1005.1
20260903051526 65 250 0.0 0.0 0.00 0.00 0.00 72 1005.2
20260903051029 65 250 0.0 0.0 0.00 0.00 0.00 71 1005.3
20260903050528 66 250 0.0 0.0 0.00 0.00 0.00 67 1005.2
20260903050027 67 251 0.0 1.0 0.00 0.00 0.00 66 1005.4
20260903045527 67 251 0.0 2.0 0.00 0.00 0.00 66 1005.6
20260903045025 67 252 0.0 3.0 0.00 0.00 0.00 66 1005.6
20260903044527 67 242 0.0 2.0 0.00 0.00 0.00 66 1005.6
20260903044025 67 248 0.0 6.0 0.00 0.00 0.00 65 1005.5
20260903043525 67 252 3.0 6.0 0.00 0.00 0.00 65 1005.5
20260903043027 67 222 2.0 5.0 0.00 0.00 0.00 66 1005.5
20260903042626 67 234 2.0 5.0 0.00 0.00 0.00 65 1005.5
20260903042024 67 74 1.0 7.0 0.00 0.00 0.00 66 1005.3
20260903041524 66 259 1.0 4.0 0.00 0.00 0.00 68 1005.1
20260903041024 67 120 0.0 7.0 0.00 0.00 0.00 65 1004.9
20260903040524 67 75 3.0 8.0 0.00 0.00 0.00 65 1005.0
20260903040023 67 151 3.0 10.0 0.00 0.00 0.00 65 1004.9
20260903035522 68 144 4.0 10.0 0.00 0.00 0.00 64 1004.8
20260903035022 68 131 6.0 10.0 0.00 0.00 0.00 63 1005.0
20260903034522 67 94 5.0 10.0 0.00 0.00 0.00 66 1004.8
20260903034020 67 138 5.0 10.0 0.00 0.00 0.00 67 1005.0
20260903033522 67 100 3.0 11.0 0.00 0.00 0.00 69 1005.1
20260903033031 69 115 7.0 11.0 0.00 0.00 0.00 64 1005.1
20260903032521 70 272 1.0 3.0 0.00 0.00 0.00 62 1004.4
20260903032021 70 360 0.0 4.0 0.00 0.00 0.00 62 1004.8
20260903031521 70 360 2.0 12.0 0.00 0.00 0.00 60 1005.3
20260903031018 70 360 3.0 12.0 0.00 0.00 0.00 59 1005.5
20260903030523 70 360 8.0 12.0 0.00 0.00 0.00 59 1005.7
20260903030018 70 360 1.0 5.0 0.00 0.00 0.00 55 1005.3
20260903025520 70 360 0.0 5.0 0.00 0.00 0.00 55 1004.9
20260903025016 70 360 0.0 5.0 0.00 0.00 0.00 56 1004.6
20260903024516 70 360 1.0 4.0 0.00 0.00 0.00 55 1004.6
20260903024015 70 360 1.0 4.0 0.00 0.00 0.00 54 1004.3
20260903023516 71 360 0.0 3.0 0.00 0.00 0.00 54 1004.3
20260903023018 71 360 0.0 3.0 0.00 0.00 0.00 56 1004.2
20260903022516 71 360 1.0 3.0 0.00 0.00 0.00 56 1004.4
20260903022015 71 360 0.0 5.0 0.00 0.00 0.00 56 1004.4
20260903021519 72 205 1.0 5.0 0.00 0.00 0.00 55 1004.2
20260903021019 72 347 1.0 3.0 0.00 0.00 0.00 52 1004.6
20260903020517 72 190 0.0 4.0 0.00 0.00 0.00 51 1004.6
20260903020014 72 360 1.0 4.0 0.00 0.00 0.00 51 1004.4